createdAt,value
2018-01-28T00:00:09.830Z,97039.02
2018-01-28T00:02:39.150Z,97036.59
2018-01-28T00:05:08.345Z,97041.10
2018-01-28T00:07:37.382Z,97044.00
2018-01-28T00:10:06.424Z,97050.52
2018-01-28T00:12:35.474Z,97050.74
2018-01-28T00:15:04.504Z,97043.59
2018-01-28T00:17:34.531Z,97044.36
2018-01-28T00:20:03.573Z,97036.05
2018-01-28T00:22:33.139Z,97029.41
2018-01-28T00:25:02.165Z,97025.34
2018-01-28T00:27:31.210Z,97024.73
2018-01-28T00:30:00.253Z,97026.98
2018-01-28T00:32:29.300Z,97025.45
2018-01-28T00:34:58.329Z,97017.80
2018-01-28T00:37:27.373Z,97021.97
2018-01-28T00:39:56.415Z,97023.95
2018-01-28T00:42:25.458Z,97021.30
2018-01-28T00:44:54.485Z,97021.09
2018-01-28T00:47:23.614Z,97015.20
2018-01-28T00:49:52.730Z,97014.41
2018-01-28T00:52:21.750Z,97012.13
2018-01-28T00:54:50.799Z,97013.95
2018-01-28T00:57:19.825Z,97018.63
2018-01-28T00:59:48.868Z,97028.23
2018-01-28T01:02:17.918Z,97033.11
2018-01-28T01:04:46.959Z,97034.30
2018-01-28T01:07:16.014Z,97032.21
2018-01-28T01:09:45.079Z,97032.25
2018-01-28T01:12:14.113Z,97040.14
2018-01-28T01:14:43.154Z,97049.55
2018-01-28T01:17:12.207Z,97044.99
2018-01-28T01:19:41.249Z,97066.77
2018-01-28T01:22:10.305Z,97047.78
2018-01-28T01:24:39.406Z,97052.80
2018-01-28T01:27:08.420Z,97047.73
2018-01-28T01:29:37.597Z,97047.98
2018-01-28T01:32:06.609Z,97041.67
2018-01-28T01:34:35.642Z,97042.25
2018-01-28T01:37:04.693Z,97042.92
2018-01-28T01:39:33.729Z,97045.60
2018-01-28T01:42:02.773Z,97045.84
2018-01-28T01:44:31.886Z,97044.08
2018-01-28T01:47:00.977Z,97050.70
2018-01-28T01:49:35.806Z,97050.19
2018-01-28T01:52:04.838Z,97060.47
2018-01-28T01:54:33.876Z,97059.65
2018-01-28T01:57:02.916Z,97060.97
2018-01-28T01:59:31.950Z,97076.16
2018-01-28T02:02:00.996Z,97069.20
2018-01-28T02:07:05.281Z,97068.40
2018-01-28T02:09:34.325Z,97066.25
2018-01-28T02:12:03.368Z,97066.56
2018-01-28T02:14:32.405Z,97063.05
2018-01-28T02:17:01.445Z,97073.87
2018-01-28T02:19:30.473Z,97066.59
2018-01-28T02:21:59.512Z,97072.58
2018-01-28T02:24:28.601Z,97073.77
2018-01-28T02:26:57.645Z,97079.08
2018-01-28T02:29:26.681Z,97075.60
2018-01-28T02:31:55.754Z,97083.62
2018-01-28T02:34:24.777Z,97088.27
2018-01-28T02:36:53.814Z,97093.12
2018-01-28T02:41:58.101Z,97086.17
2018-01-28T02:44:27.181Z,97077.39
2018-01-28T02:46:56.231Z,97070.38
2018-01-28T02:49:25.268Z,97065.95
2018-01-28T02:51:54.318Z,97079.63
2018-01-28T02:54:23.352Z,97088.81
2018-01-28T02:59:27.689Z,97080.83
2018-01-28T03:01:56.702Z,97083.55
2018-01-28T03:04:25.737Z,97075.89
2018-01-28T03:06:54.769Z,97070.56
2018-01-28T03:09:23.817Z,97081.48
2018-01-28T03:11:56.390Z,97089.03
2018-01-28T03:14:28.355Z,97083.08
2018-01-28T03:16:57.370Z,97080.66
2018-01-28T03:19:26.436Z,97078.73
2018-01-28T03:21:55.446Z,97079.19
2018-01-28T03:24:24.476Z,97091.31
2018-01-28T03:26:53.504Z,97086.59
2018-01-28T03:29:22.542Z,97092.00
2018-01-28T03:31:51.584Z,97087.31
2018-01-28T03:34:20.628Z,97081.55
2018-01-28T03:36:49.722Z,97081.16
2018-01-28T03:39:18.766Z,97089.81
2018-01-28T03:41:47.820Z,97090.59
2018-01-28T03:44:16.874Z,97084.48
2018-01-28T03:49:21.094Z,97098.59
2018-01-28T03:51:50.122Z,97092.19
2018-01-28T03:54:19.150Z,97098.21
2018-01-28T03:59:23.419Z,97095.47
2018-01-28T04:01:52.458Z,97089.33
2018-01-28T04:04:21.498Z,97091.67
2018-01-28T04:06:50.525Z,97085.96
2018-01-28T04:09:19.582Z,97091.09
2018-01-28T04:11:48.602Z,97088.45
2018-01-28T04:14:21.171Z,97091.02
2018-01-28T04:16:50.185Z,97088.70
2018-01-28T04:19:19.251Z,97081.22
2018-01-28T04:21:48.275Z,97076.03
2018-01-28T04:24:17.336Z,97069.20
2018-01-28T04:26:46.367Z,97067.22
2018-01-28T04:29:15.402Z,97052.47
2018-01-28T04:34:19.621Z,97061.78
2018-01-28T04:36:49.025Z,97055.34
2018-01-28T04:39:18.095Z,97053.44
2018-01-28T04:41:47.124Z,97058.05
2018-01-28T04:44:16.162Z,97056.41
2018-01-28T04:46:45.217Z,97056.91
2018-01-28T04:49:14.257Z,97060.58
2018-01-28T04:51:43.302Z,97058.84
2018-01-28T04:54:12.331Z,97062.70
2018-01-28T04:59:19.321Z,97052.48
2018-01-28T05:01:49.241Z,97056.25
2018-01-28T05:04:18.280Z,97061.72
2018-01-28T05:06:47.315Z,97063.06
2018-01-28T05:09:16.364Z,97067.56
2018-01-28T05:11:45.402Z,97068.11
2018-01-28T05:14:14.425Z,97074.95
2018-01-28T05:16:43.473Z,97066.55
2018-01-28T05:19:12.510Z,97070.39
2018-01-28T05:21:41.557Z,97075.39
2018-01-28T05:24:10.598Z,97077.66
2018-01-28T05:26:39.675Z,97069.00
2018-01-28T05:29:08.706Z,97072.20
2018-01-28T05:31:37.773Z,97080.14
2018-01-28T05:34:06.809Z,97085.85
2018-01-28T05:39:11.046Z,97079.27
2018-01-28T05:41:40.089Z,97082.55
2018-01-28T05:44:09.125Z,97085.02
2018-01-28T05:46:38.197Z,97082.64
2018-01-28T05:49:07.247Z,97085.41
2018-01-28T05:51:36.317Z,97082.18
2018-01-28T05:54:05.337Z,97075.30
2018-01-28T05:59:10.101Z,97070.13
2018-01-28T06:01:39.235Z,97062.19
2018-01-28T06:04:08.273Z,97062.34
2018-01-28T06:06:37.309Z,97065.47
2018-01-28T06:09:06.355Z,97062.93
2018-01-28T06:11:35.411Z,97060.83
2018-01-28T06:16:39.677Z,97070.47
2018-01-28T06:19:08.725Z,97072.71
2018-01-28T06:21:37.765Z,97074.17
2018-01-28T06:24:06.814Z,97069.06
2018-01-28T06:26:35.846Z,97069.36
2018-01-28T06:29:04.893Z,97072.05
2018-01-28T06:31:33.993Z,97073.48
2018-01-28T06:34:03.020Z,97072.73
2018-01-28T06:36:32.065Z,97070.06
2018-01-28T06:39:01.118Z,97073.75
2018-01-28T06:41:30.346Z,97073.92
2018-01-28T06:43:59.386Z,97080.34
2018-01-28T06:46:28.433Z,97082.27
2018-01-28T06:51:32.662Z,97091.92
2018-01-28T06:54:01.734Z,97091.40
2018-01-28T06:56:30.837Z,97096.22
2018-01-28T06:58:59.886Z,97097.52
2018-01-28T07:01:28.918Z,97093.39
2018-01-28T07:03:57.997Z,97097.73
2018-01-28T07:06:27.025Z,97098.30
2018-01-28T07:08:56.069Z,97102.09
2018-01-28T07:11:25.114Z,97106.20
2018-01-28T07:13:54.172Z,97109.14
2018-01-28T07:16:23.225Z,97112.27
2018-01-28T07:18:52.273Z,97117.11
2018-01-28T07:21:21.305Z,97119.45
2018-01-28T07:23:50.349Z,97119.58
2018-01-28T07:28:54.569Z,97129.13
2018-01-28T07:31:23.605Z,97126.23
2018-01-28T07:33:52.769Z,97115.59
2018-01-28T07:36:22.123Z,97113.72
2018-01-28T07:38:51.154Z,97109.16
2018-01-28T07:41:20.298Z,97106.47
2018-01-28T07:46:24.517Z,97110.81
2018-01-28T07:48:53.589Z,97103.58
2018-01-28T07:51:22.736Z,97106.59
2018-01-28T07:53:51.744Z,97115.14
2018-01-28T07:56:20.795Z,97120.47
2018-01-28T07:58:49.827Z,97123.53
2018-01-28T08:03:54.045Z,97131.27
2018-01-28T08:06:23.120Z,97132.53
2018-01-28T08:08:53.898Z,97135.56
2018-01-28T08:11:22.937Z,97136.34
2018-01-28T08:13:53.721Z,97134.11
2018-01-28T08:16:22.753Z,97141.36
2018-01-28T08:18:51.809Z,97135.34
2018-01-28T08:21:20.849Z,97129.45
2018-01-28T08:23:49.917Z,97131.74
2018-01-28T08:26:18.956Z,97128.72
2018-01-28T08:28:48.745Z,97129.66
2018-01-28T08:33:53.079Z,97129.34
2018-01-28T08:36:23.084Z,97122.49
2018-01-28T08:38:52.136Z,97121.02
2018-01-28T08:41:21.177Z,97117.77
2018-01-28T08:43:50.271Z,97114.08
2018-01-28T08:46:19.482Z,97118.48
2018-01-28T08:48:48.507Z,97124.93
2018-01-28T08:51:17.558Z,97120.05
2018-01-28T08:53:46.607Z,97127.53
2018-01-28T08:56:15.684Z,97133.57
2018-01-28T08:58:44.706Z,97135.16
2018-01-28T09:01:13.755Z,97140.63
2018-01-28T09:03:42.794Z,97138.49
2018-01-28T09:06:11.866Z,97146.14
2018-01-28T09:08:40.908Z,97152.72
2018-01-28T09:11:09.965Z,97151.85
2018-01-28T09:13:39.010Z,97165.48
2018-01-28T09:16:08.059Z,97175.31
2018-01-28T09:18:37.106Z,97165.84
2018-01-28T09:21:06.149Z,97169.98
2018-01-28T09:23:35.205Z,97177.20
2018-01-28T09:26:04.241Z,97172.72
2018-01-28T09:28:33.280Z,97171.71
2018-01-28T09:31:02.341Z,97173.94
2018-01-28T09:33:31.392Z,97169.52
2018-01-28T09:36:00.442Z,97179.52
2018-01-28T09:38:29.486Z,97191.91
2018-01-28T09:40:58.531Z,97196.27
2018-01-28T09:43:29.007Z,97193.61
2018-01-28T09:45:58.051Z,97195.78
2018-01-28T09:48:27.089Z,97200.05
2018-01-28T09:53:31.321Z,97199.55
2018-01-28T09:56:01.337Z,97203.55
2018-01-28T09:58:32.295Z,97204.72
2018-01-28T10:01:02.282Z,97207.56
2018-01-28T10:03:31.345Z,97200.51
2018-01-28T10:08:40.405Z,97198.36
2018-01-28T10:11:09.762Z,97204.47
2018-01-28T10:13:38.792Z,97201.53
2018-01-28T10:16:07.846Z,97201.00
2018-01-28T10:18:37.784Z,97198.08
2018-01-28T10:21:06.845Z,97194.42
2018-01-28T10:23:35.886Z,97189.97
2018-01-28T10:26:13.546Z,97193.02
2018-01-28T10:28:47.206Z,97189.01
2018-01-28T10:34:05.149Z,97186.44
2018-01-28T10:36:41.174Z,97182.86
2018-01-28T10:39:15.652Z,97174.02
2018-01-28T10:41:50.887Z,97177.84
2018-01-28T10:49:02.678Z,97168.62
2018-01-28T10:51:38.074Z,97183.62
2018-01-28T10:54:15.035Z,97181.37
2018-01-28T10:59:26.250Z,97171.73
2018-01-28T11:02:01.953Z,97175.23
2018-01-28T11:04:35.993Z,97174.34
2018-01-28T11:07:11.397Z,97174.67
2018-01-28T11:09:49.173Z,97169.66
2018-01-28T11:17:46.425Z,97173.70
2018-01-28T11:20:23.137Z,97176.51
2018-01-28T11:28:12.156Z,97159.98
2018-01-28T11:30:46.378Z,97162.66
2018-01-28T11:33:22.707Z,97153.06
2018-01-28T11:35:57.782Z,97173.09
2018-01-28T11:38:35.690Z,97151.36
2018-01-28T11:41:14.241Z,97164.98
2018-01-28T11:43:51.148Z,97149.02
2018-01-28T11:46:25.643Z,97149.06
2018-01-28T11:49:01.412Z,97170.08
2018-01-28T11:51:38.675Z,97174.64
2018-01-28T11:54:14.778Z,97173.88
2018-01-28T11:56:51.606Z,97161.91
2018-01-28T11:59:26.556Z,97168.63
2018-01-28T12:02:07.489Z,97162.98
2018-01-28T12:04:43.814Z,97172.31
2018-01-28T12:07:23.436Z,97162.76
2018-01-28T12:10:02.123Z,97162.55
2018-01-28T12:12:42.742Z,97153.58
2018-01-28T12:15:19.877Z,97157.16
2018-01-28T12:17:55.666Z,97165.44
2018-01-28T12:20:33.871Z,97161.30
2018-01-28T12:25:45.096Z,97158.77
2018-01-28T12:28:20.731Z,97175.43
2018-01-28T12:30:56.439Z,97154.65
2018-01-28T12:33:32.995Z,97151.82
2018-01-28T12:38:46.246Z,97138.96
2018-01-28T12:41:24.723Z,97142.59
2018-01-28T12:44:00.981Z,97146.59
2018-01-28T12:46:36.022Z,97129.20
2018-01-28T12:49:15.723Z,97121.06
2018-01-28T12:51:51.079Z,97129.76
2018-01-28T12:54:28.487Z,97117.66
2018-01-28T12:57:04.501Z,97138.35
2018-01-28T12:59:42.042Z,97125.05
2018-01-28T13:02:16.924Z,97123.36
2018-01-28T13:04:53.933Z,97111.63
2018-01-28T13:07:29.596Z,97119.52
2018-01-28T13:10:04.450Z,97109.81
2018-01-28T13:12:40.566Z,97108.35
2018-01-28T13:17:57.774Z,97114.74
2018-01-28T13:20:34.603Z,97106.87
2018-01-28T13:23:10.996Z,97111.98
2018-01-28T13:25:48.299Z,97117.03
2018-01-28T13:28:24.924Z,97116.05
2018-01-28T13:30:59.866Z,97114.35
2018-01-28T13:33:29.207Z,97113.06
2018-01-28T13:35:58.237Z,97116.09
2018-01-28T13:38:27.272Z,97129.13
2018-01-28T13:40:56.332Z,97114.38
2018-01-28T13:43:25.382Z,97121.73
2018-01-28T13:45:54.482Z,97106.59
2018-01-28T13:50:58.825Z,97118.88
2018-01-28T13:53:27.898Z,97125.92
2018-01-28T13:55:56.939Z,97121.88
2018-01-28T13:58:26.006Z,97124.91
2018-01-28T14:00:55.056Z,97123.52
2018-01-28T14:03:24.098Z,97120.98
2018-01-28T14:05:53.165Z,97126.17
2018-01-28T14:08:22.213Z,97125.96
2018-01-28T14:10:51.275Z,97123.41
2018-01-28T14:13:20.333Z,97124.21
2018-01-28T14:15:49.998Z,97128.43
2018-01-28T14:18:21.447Z,97128.45
2018-01-28T14:20:50.811Z,97131.95
2018-01-28T14:23:20.208Z,97132.98
2018-01-28T14:25:49.876Z,97137.72
2018-01-28T14:28:19.349Z,97142.73
2018-01-28T14:30:48.464Z,97137.91
2018-01-28T14:33:17.523Z,97144.52
2018-01-28T14:35:47.585Z,97144.25
2018-01-28T14:38:16.633Z,97141.95
2018-01-28T14:40:46.817Z,97146.86
2018-01-28T14:43:15.841Z,97143.36
2018-01-28T14:45:46.180Z,97139.90
2018-01-28T14:48:15.221Z,97127.20
2018-01-28T14:50:45.397Z,97136.92
2018-01-28T14:53:18.735Z,97131.88
2018-01-28T14:55:52.754Z,97143.52
2018-01-28T14:58:25.624Z,97132.03
2018-01-28T15:03:35.348Z,97126.63
2018-01-28T15:08:44.242Z,97117.80
2018-01-28T15:13:53.864Z,97113.73
2018-01-28T15:16:28.363Z,97107.61
2018-01-28T15:19:01.343Z,97118.11
2018-01-28T15:21:34.214Z,97121.55
2018-01-28T15:24:07.498Z,97123.08
2018-01-28T15:26:40.811Z,97116.58
2018-01-28T15:29:13.559Z,97125.63
2018-01-28T15:31:47.061Z,97120.36
2018-01-28T15:34:20.381Z,97123.72
2018-01-28T15:36:54.347Z,97125.30
2018-01-28T15:39:27.216Z,97125.68
2018-01-28T15:42:00.028Z,97128.37
2018-01-28T15:44:29.059Z,97126.33
2018-01-28T15:46:58.132Z,97131.72
2018-01-28T15:49:27.179Z,97133.67
2018-01-28T15:54:31.409Z,97137.36
2018-01-28T15:57:00.458Z,97137.50
2018-01-28T15:59:29.493Z,97134.23
2018-01-28T16:01:59.369Z,97143.04
2018-01-28T16:04:28.398Z,97138.82
2018-01-28T16:06:57.441Z,97137.94
2018-01-28T16:09:26.486Z,97143.91
2018-01-28T16:11:55.525Z,97147.27
2018-01-28T16:16:59.805Z,97149.17
2018-01-28T16:19:29.512Z,97152.86
2018-01-28T16:21:58.592Z,97155.27
2018-01-28T16:24:28.066Z,97160.06
2018-01-28T16:26:57.168Z,97162.69
2018-01-28T16:29:26.275Z,97165.33
2018-01-28T16:31:55.337Z,97168.52
2018-01-28T16:34:24.386Z,97176.03
2018-01-28T16:36:53.426Z,97176.16
2018-01-28T16:41:57.739Z,97188.91
2018-01-28T16:44:26.788Z,97186.47
2018-01-28T16:46:55.817Z,97180.75
2018-01-28T16:52:00.057Z,97187.91
2018-01-28T16:54:29.138Z,97192.95
2018-01-28T16:56:58.418Z,97194.22
2018-01-28T17:02:02.711Z,97196.32
2018-01-28T17:04:31.738Z,97200.28
2018-01-28T17:07:00.800Z,97197.86
2018-01-28T17:12:05.022Z,97195.83
2018-01-28T17:14:34.089Z,97196.94
2018-01-28T17:17:03.197Z,97199.84
2018-01-28T17:19:32.273Z,97193.91
2018-01-28T17:22:01.302Z,97199.52
2018-01-28T17:24:30.585Z,97202.80
2018-01-28T17:26:59.638Z,97200.31
2018-01-28T17:29:28.687Z,97191.97
2018-01-28T17:31:57.734Z,97192.01
2018-01-28T17:34:26.858Z,97191.91
2018-01-28T17:36:55.900Z,97187.33
2018-01-28T17:39:24.921Z,97186.29
2018-01-28T17:41:53.957Z,97189.17
2018-01-28T17:44:22.996Z,97192.12
2018-01-28T17:46:52.052Z,97182.33
2018-01-28T17:49:21.147Z,97179.13
2018-01-28T17:51:50.179Z,97177.45
2018-01-28T17:54:19.169Z,97175.98
2018-01-28T17:56:48.276Z,97171.62
2018-01-28T17:59:17.308Z,97174.97
2018-01-28T18:01:46.618Z,97178.14
2018-01-28T18:04:15.636Z,97180.77
2018-01-28T18:06:45.815Z,97178.23
2018-01-28T18:09:14.844Z,97181.86
2018-01-28T18:14:19.069Z,97190.44
2018-01-28T18:16:50.644Z,97185.06
2018-01-28T18:19:20.560Z,97185.58
2018-01-28T18:24:24.781Z,97188.61
2018-01-28T18:26:53.878Z,97181.63
2018-01-28T18:29:22.915Z,97184.95
2018-01-28T18:31:51.951Z,97175.41
2018-01-28T18:34:20.974Z,97180.77
2018-01-28T18:36:50.016Z,97177.29
2018-01-28T18:39:19.050Z,97170.72
2018-01-28T18:41:48.082Z,97180.69
2018-01-28T18:44:17.130Z,97178.23
2018-01-28T18:46:46.550Z,97184.52
2018-01-28T18:49:16.063Z,97176.84
2018-01-28T18:51:46.027Z,97178.04
2018-01-28T18:54:15.066Z,97182.47
2018-01-28T18:56:44.905Z,97179.02
2018-01-28T18:59:13.974Z,97175.16
2018-01-28T19:01:43.448Z,97177.52
2018-01-28T19:04:12.668Z,97172.72
2018-01-28T19:06:41.837Z,97175.98
2018-01-28T19:09:10.886Z,97170.89
2018-01-28T19:11:39.905Z,97168.80
2018-01-28T19:14:08.951Z,97173.33
2018-01-28T19:16:38.004Z,97169.27
2018-01-28T19:19:07.028Z,97167.17
2018-01-28T19:21:36.061Z,97167.97
2018-01-28T19:24:05.096Z,97167.34
2018-01-28T19:26:34.160Z,97172.25
2018-01-28T19:29:03.274Z,97171.02
2018-01-28T19:31:32.297Z,97172.27
2018-01-28T19:34:01.678Z,97174.39
2018-01-28T19:36:30.689Z,97171.48
2018-01-28T19:38:59.721Z,97166.53
2018-01-28T19:41:28.753Z,97161.47
2018-01-28T19:43:57.801Z,97167.47
2018-01-28T19:46:26.843Z,97173.29
2018-01-28T19:48:56.161Z,97182.93
2018-01-28T19:54:00.505Z,97190.80
2018-01-28T19:56:29.524Z,97192.62
2018-01-28T19:58:58.539Z,97193.23
2018-01-28T20:01:27.584Z,97195.44
2018-01-28T20:03:56.608Z,97188.18
2018-01-28T20:06:25.641Z,97184.27
2018-01-28T20:08:54.679Z,97187.62
2018-01-28T20:11:23.707Z,97180.16
2018-01-28T20:13:52.749Z,97184.75
2018-01-28T20:16:21.783Z,97180.90
2018-01-28T20:18:51.096Z,97191.48
2018-01-28T20:21:20.148Z,97192.28
2018-01-28T20:23:49.212Z,97192.44
2018-01-28T20:26:18.238Z,97185.22
2018-01-28T20:28:48.457Z,97179.50
2018-01-28T20:31:17.493Z,97179.09
2018-01-28T20:33:46.545Z,97175.47
2018-01-28T20:36:15.590Z,97173.59
2018-01-28T20:38:44.721Z,97171.52
2018-01-28T20:41:13.780Z,97169.83
2018-01-28T20:43:42.837Z,97167.12
2018-01-28T20:46:12.076Z,97167.06
2018-01-28T20:48:41.145Z,97174.13
2018-01-28T20:51:10.248Z,97172.44
2018-01-28T20:53:39.299Z,97183.73
2018-01-28T20:56:08.356Z,97183.01
2018-01-28T20:58:37.380Z,97186.55
2018-01-28T21:01:06.426Z,97180.68
2018-01-28T21:03:35.452Z,97183.69
2018-01-28T21:06:04.482Z,97176.41
2018-01-28T21:08:33.529Z,97175.19
2018-01-28T21:11:02.575Z,97172.32
2018-01-28T21:13:31.614Z,97172.16
2018-01-28T21:16:00.652Z,97169.23
2018-01-28T21:18:29.692Z,97163.73
2018-01-28T21:20:59.761Z,97166.53
2018-01-28T21:23:28.769Z,97166.19
2018-01-28T21:25:57.869Z,97157.03
2018-01-28T21:28:26.912Z,97167.37
2018-01-28T21:30:55.949Z,97163.30
2018-01-28T21:33:24.985Z,97155.98
2018-01-28T21:35:54.056Z,97155.97
2018-01-28T21:38:23.094Z,97156.02
2018-01-28T21:40:52.132Z,97150.87
2018-01-28T21:43:21.166Z,97150.31
2018-01-28T21:45:50.400Z,97147.17
2018-01-28T21:50:54.601Z,97131.11
2018-01-28T21:53:23.673Z,97130.68
2018-01-28T21:55:58.110Z,97123.32
2018-01-28T21:58:31.638Z,97132.34
2018-01-28T22:01:06.579Z,97130.19
2018-01-28T22:10:01.218Z,97136.83
2018-01-28T22:12:30.236Z,97137.09
2018-01-28T22:14:59.325Z,97141.52
2018-01-28T22:17:28.373Z,97145.75
2018-01-28T22:19:57.405Z,97142.14
2018-01-28T22:22:26.439Z,97146.75
2018-01-28T22:24:55.465Z,97141.42
2018-01-28T22:27:24.513Z,97135.25
2018-01-28T22:32:28.774Z,97141.81
2018-01-28T22:34:57.846Z,97137.66
2018-01-28T22:37:26.885Z,97145.64
2018-01-28T22:39:55.916Z,97142.25
2018-01-28T22:42:24.948Z,97142.41
2018-01-28T22:44:53.995Z,97139.59
2018-01-28T22:47:23.022Z,97141.15
2018-01-28T22:50:00.455Z,97136.57
2018-01-28T22:55:04.677Z,97135.73
2018-01-28T22:57:33.818Z,97134.52
2018-01-28T23:00:02.905Z,97126.02
2018-01-28T23:02:31.957Z,97121.14
2018-01-28T23:05:00.989Z,97120.61
2018-01-28T23:07:30.073Z,97112.02
2018-01-28T23:09:59.126Z,97107.42
2018-01-28T23:12:28.146Z,97103.23
2018-01-28T23:14:57.201Z,97104.14
2018-01-28T23:17:26.265Z,97098.73
2018-01-28T23:19:55.306Z,97094.98
2018-01-28T23:22:24.318Z,97095.84
2018-01-28T23:24:53.347Z,97094.57
2018-01-28T23:27:22.380Z,97097.08
2018-01-28T23:32:26.605Z,97095.86
2018-01-28T23:34:55.632Z,97106.30
2018-01-28T23:37:24.662Z,97092.62
2018-01-28T23:39:53.690Z,97086.80
2018-01-28T23:42:22.713Z,97078.08
2018-01-28T23:47:27.938Z,97078.02
2018-01-28T23:49:56.977Z,97084.16
2018-01-28T23:52:26.009Z,97079.59
2018-01-28T23:54:55.062Z,97080.03
2018-01-28T23:57:24.129Z,97078.80
2018-01-28T23:59:53.170Z,97068.72
